Time;durP1;ratioP1;P1;durP2;ratioP2;P2;SDS_P1;SDS_P2;PMS_P1;PMS_P2;Temp;Humidity;BMP_temperature;BMP_pressure;BME280_temperature;BME280_humidity;BME280_pressure;Samples;Min_cycle;Max_cycle;Signal;HPM_P1;HPM_P2
2021/08/18 00:02:16;;;;;;;3.72;2.33;;;26.40;42.10;;;;;;6107839;28;80279;-63
2021/08/18 00:05:16;;;;;;;4.53;2.63;;;26.40;42.20;;;;;;6108598;28;80680;-62
2021/08/18 00:08:17;;;;;;;3.65;2.50;;;26.30;42.10;;;;;;6108158;28;80360;-62
2021/08/18 00:11:17;;;;;;;8.85;2.53;;;26.30;42.10;;;;;;6107482;28;80682;-62
2021/08/18 00:14:18;;;;;;;4.72;2.85;;;26.40;42.20;;;;;;6108752;28;81174;-63
2021/08/18 00:17:18;;;;;;;3.78;2.40;;;26.40;42.00;;;;;;6108269;28;80755;-62
2021/08/18 00:20:19;;;;;;;4.43;2.38;;;26.30;42.10;;;;;;6108600;28;81173;-62
2021/08/18 00:23:19;;;;;;;3.30;2.70;;;26.30;42.00;;;;;;6107342;28;80431;-62
2021/08/18 00:26:26;;;;;;;3.67;2.95;;;26.30;42.10;;;;;;6109240;28;80652;-62
2021/08/18 00:29:26;;;;;;;3.05;2.53;;;26.30;42.00;;;;;;6107502;28;81031;-61
2021/08/18 00:32:27;;;;;;;5.45;2.65;;;26.40;42.10;;;;;;6106759;28;83786;-61
2021/08/18 00:35:27;;;;;;;3.38;2.42;;;26.30;42.10;;;;;;6106482;28;80901;-61
2021/08/18 00:38:28;;;;;;;6.18;2.42;;;26.40;42.10;;;;;;6107719;28;81462;-62
2021/08/18 00:41:28;;;;;;;3.42;2.47;;;26.30;42.00;;;;;;6106579;28;80393;-61
2021/08/18 00:44:29;;;;;;;5.13;2.67;;;26.30;42.00;;;;;;6107017;28;82837;-61
2021/08/18 00:47:29;;;;;;;7.18;2.65;;;26.30;42.00;;;;;;6111131;28;81557;-61
2021/08/18 00:50:30;;;;;;;4.65;2.50;;;26.30;41.80;;;;;;6111188;28;80441;-61
2021/08/18 00:53:30;;;;;;;5.05;3.08;;;26.30;42.00;;;;;;6093824;28;80579;-61
2021/08/18 00:56:31;;;;;;;4.13;2.53;;;26.30;42.00;;;;;;6111984;28;80675;-61
2021/08/18 00:59:31;;;;;;;4.05;2.70;;;26.20;42.00;;;;;;6111177;28;80642;-61
2021/08/18 01:02:32;;;;;;;7.38;2.60;;;26.20;42.10;;;;;;6111372;28;81098;-61
2021/08/18 01:05:32;;;;;;;4.57;2.50;;;26.20;42.00;;;;;;6109645;28;80340;-61
2021/08/18 01:08:34;;;;;;;6.78;2.70;;;26.20;42.10;;;;;;6110672;28;80844;-61
2021/08/18 01:11:35;;;;;;;5.03;2.80;;;26.20;42.00;;;;;;6104373;28;80828;-61
2021/08/18 01:14:36;;;;;;;7.18;3.05;;;26.20;42.10;;;;;;6085272;28;80482;-61
2021/08/18 01:17:36;;;;;;;3.58;2.58;;;26.20;42.00;;;;;;6088269;28;80545;-61
2021/08/18 01:20:37;;;;;;;4.95;2.63;;;26.20;42.00;;;;;;6084330;28;81309;-61
2021/08/18 01:23:37;;;;;;;7.78;2.92;;;26.20;42.00;;;;;;6097088;28;80561;-61
2021/08/18 01:26:38;;;;;;;4.68;2.75;;;26.20;42.10;;;;;;6107494;28;80480;-61
2021/08/18 01:29:38;;;;;;;3.97;2.20;;;26.20;42.10;;;;;;6094547;28;80400;-61
2021/08/18 01:32:39;;;;;;;5.70;3.38;;;26.20;42.10;;;;;;6110161;28;80438;-61
2021/08/18 01:35:39;;;;;;;5.43;2.85;;;26.20;42.00;;;;;;6109351;28;80920;-61
2021/08/18 01:38:40;;;;;;;4.68;2.67;;;26.20;42.00;;;;;;6109654;28;80163;-61
2021/08/18 01:41:40;;;;;;;4.15;2.75;;;26.20;42.20;;;;;;6104326;28;80628;-61
2021/08/18 01:44:40;;;;;;;4.15;2.80;;;26.20;41.90;;;;;;6105483;28;80476;-61
2021/08/18 01:47:41;;;;;;;5.13;2.85;;;26.20;41.70;;;;;;6108033;28;80679;-61
2021/08/18 01:50:41;;;;;;;4.38;2.60;;;26.20;41.70;;;;;;6103604;28;80632;-61
2021/08/18 01:53:42;;;;;;;3.97;2.42;;;26.20;41.80;;;;;;6071460;28;80869;-62
2021/08/18 01:56:42;;;;;;;6.65;2.75;;;26.20;41.90;;;;;;6083795;28;80417;-61
2021/08/18 01:59:43;;;;;;;3.50;2.78;;;26.20;41.70;;;;;;6086401;28;80837;-61
2021/08/18 02:02:43;;;;;;;3.58;2.78;;;26.10;41.60;;;;;;6081960;28;80844;-61
2021/08/18 02:05:44;;;;;;;3.70;2.38;;;26.10;41.60;;;;;;6080763;28;80377;-61
2021/08/18 02:08:44;;;;;;;3.67;2.72;;;26.10;41.60;;;;;;6084813;28;80503;-61
2021/08/18 02:11:45;;;;;;;7.72;2.70;;;26.10;42.30;;;;;;6084804;28;80435;-61
2021/08/18 02:14:45;;;;;;;4.93;2.65;;;26.10;41.60;;;;;;6084459;28;80616;-61
2021/08/18 02:17:46;;;;;;;5.32;2.65;;;26.10;41.60;;;;;;6084752;28;82003;-61
2021/08/18 02:20:46;;;;;;;4.75;2.85;;;26.10;41.60;;;;;;6087588;28;80478;-61
2021/08/18 02:23:47;;;;;;;4.47;2.50;;;26.10;41.60;;;;;;6083664;28;80556;-61
2021/08/18 02:26:47;;;;;;;5.03;2.65;;;26.10;41.60;;;;;;6084862;28;80313;-61
2021/08/18 02:29:47;;;;;;;4.35;2.78;;;26.10;41.60;;;;;;6084519;28;80994;-61
2021/08/18 02:32:48;;;;;;;4.65;2.60;;;26.10;41.60;;;;;;6091384;28;80399;-61
2021/08/18 02:35:48;;;;;;;4.93;2.88;;;26.10;41.60;;;;;;6111556;28;80699;-62
2021/08/18 02:38:49;;;;;;;4.47;2.55;;;26.10;41.60;;;;;;6111007;28;80764;-61
2021/08/18 02:41:49;;;;;;;3.30;2.63;;;26.10;41.70;;;;;;6109816;28;81656;-61
2021/08/18 02:44:50;;;;;;;4.22;2.83;;;26.00;41.60;;;;;;6093603;28;82520;-61
2021/08/18 02:47:50;;;;;;;4.38;2.92;;;26.00;41.70;;;;;;6108545;28;80220;-61
2021/08/18 02:50:51;;;;;;;5.75;3.03;;;26.10;41.80;;;;;;6109294;28;80495;-61
2021/08/18 02:53:51;;;;;;;4.03;2.45;;;26.10;42.00;;;;;;6090726;28;83315;-61
2021/08/18 02:56:52;;;;;;;7.85;3.20;;;26.00;42.00;;;;;;6109180;28;80518;-62
2021/08/18 02:59:52;;;;;;;8.35;3.60;;;26.00;42.00;;;;;;6109484;28;82496;-61
2021/08/18 03:02:53;;;;;;;4.18;2.83;;;26.00;42.00;;;;;;6110239;28;80771;-61
2021/08/18 03:05:53;;;;;;;4.88;2.72;;;26.00;42.00;;;;;;6106930;28;80331;-61
2021/08/18 03:08:54;;;;;;;4.45;2.40;;;26.00;42.00;;;;;;6106842;28;80563;-62
2021/08/18 03:11:54;;;;;;;7.30;2.92;;;26.00;42.00;;;;;;6106395;28;80426;-61
2021/08/18 03:14:55;;;;;;;4.07;2.60;;;26.00;42.10;;;;;;6107963;28;80553;-61
2021/08/18 03:17:55;;;;;;;4.65;2.70;;;26.00;42.00;;;;;;6110964;28;80593;-60
2021/08/18 03:20:56;;;;;;;3.25;2.70;;;26.00;42.30;;;;;;6109646;28;81688;-60
2021/08/18 03:23:56;;;;;;;4.82;3.08;;;26.00;42.20;;;;;;6107811;28;80513;-61
2021/08/18 03:26:57;;;;;;;3.97;2.50;;;26.00;42.30;;;;;;6108158;28;80533;-60
2021/08/18 03:29:57;;;;;;;5.70;3.05;;;26.00;42.30;;;;;;6109661;28;80467;-60
2021/08/18 03:32:58;;;;;;;5.07;2.95;;;26.00;42.20;;;;;;6109183;28;80396;-60
2021/08/18 03:35:58;;;;;;;5.35;3.03;;;26.00;42.10;;;;;;6107646;28;80591;-61
2021/08/18 03:38:59;;;;;;;3.15;2.45;;;25.90;42.00;;;;;;6109452;28;80616;-61
2021/08/18 03:41:59;;;;;;;4.25;3.08;;;26.00;42.00;;;;;;6108278;28;80461;-61
2021/08/18 03:45:00;;;;;;;3.30;2.60;;;26.00;42.00;;;;;;6108246;28;80396;-61
2021/08/18 03:48:00;;;;;;;4.00;2.55;;;26.00;42.00;;;;;;6108739;28;81662;-61
2021/08/18 03:51:00;;;;;;;5.35;2.92;;;26.00;42.00;;;;;;6103033;28;81263;-61
2021/08/18 03:54:01;;;;;;;5.43;3.17;;;25.90;42.00;;;;;;6107931;28;80513;-61
2021/08/18 03:57:01;;;;;;;7.78;3.05;;;25.90;42.00;;;;;;6106510;28;80692;-61
2021/08/18 04:00:02;;;;;;;4.97;2.65;;;26.00;42.00;;;;;;6106258;28;82081;-61
2021/08/18 04:03:05;;;;;;;3.97;2.67;;;25.90;42.00;;;;;;6108282;28;80514;-62
2021/08/18 04:06:05;;;;;;;4.50;2.50;;;25.90;42.00;;;;;;6104896;28;80461;-63
2021/08/18 04:09:06;;;;;;;4.18;2.72;;;25.90;42.00;;;;;;6108651;28;80536;-63
2021/08/18 04:12:06;;;;;;;3.10;2.33;;;25.90;41.90;;;;;;6108732;28;80659;-63
2021/08/18 04:15:07;;;;;;;6.72;3.17;;;25.90;42.10;;;;;;6109392;28;80676;-61
2021/08/18 04:18:07;;;;;;;4.93;2.67;;;25.90;42.10;;;;;;6116314;28;81430;-61
2021/08/18 04:21:08;;;;;;;5.18;2.85;;;25.90;42.30;;;;;;6118615;28;80320;-62
2021/08/18 04:24:08;;;;;;;6.68;2.88;;;25.90;42.50;;;;;;6113260;28;81354;-61
2021/08/18 04:27:09;;;;;;;7.63;2.45;;;26.00;42.60;;;;;;6125835;28;80614;-62
2021/08/18 04:30:09;;;;;;;9.93;3.35;;;26.00;43.30;;;;;;6107998;28;81612;-63
2021/08/18 04:33:10;;;;;;;11.82;3.50;;;26.00;43.10;;;;;;6108792;28;80533;-62
2021/08/18 04:36:11;;;;;;;10.43;3.42;;;26.00;43.30;;;;;;6114136;28;81036;-64
2021/08/18 04:39:11;;;;;;;10.57;3.03;;;26.00;43.30;;;;;;6118077;28;82625;-64
2021/08/18 04:42:12;;;;;;;7.47;3.08;;;26.10;43.40;;;;;;6109096;28;80777;-64
2021/08/18 04:45:12;;;;;;;8.35;3.17;;;26.10;43.60;;;;;;6109433;28;80929;-65
2021/08/18 04:48:13;;;;;;;8.90;3.22;;;26.00;44.00;;;;;;6115448;28;80422;-63
2021/08/18 04:51:13;;;;;;;3.58;2.83;;;26.00;43.40;;;;;;6112792;28;80834;-65
2021/08/18 04:54:14;;;;;;;7.40;3.20;;;26.00;43.60;;;;;;6110125;28;80367;-63
2021/08/18 04:57:14;;;;;;;7.10;3.38;;;25.90;43.50;;;;;;6111581;28;80643;-64
2021/08/18 05:00:15;;;;;;;8.30;3.45;;;26.00;43.60;;;;;;6118073;28;80828;-65
2021/08/18 05:03:15;;;;;;;8.00;3.28;;;26.00;43.50;;;;;;6128506;28;80585;-65
2021/08/18 05:06:16;;;;;;;3.78;2.72;;;26.00;43.50;;;;;;6115103;28;81466;-66
2021/08/18 05:09:16;;;;;;;6.82;3.10;;;26.00;43.70;;;;;;6111445;28;80841;-63
2021/08/18 05:12:17;;;;;;;4.90;3.05;;;26.00;43.70;;;;;;6108093;28;80695;-63
2021/08/18 05:15:17;;;;;;;6.55;3.00;;;26.00;43.80;;;;;;6111607;28;81344;-64
2021/08/18 05:18:17;;;;;;;6.13;3.30;;;26.00;43.80;;;;;;6117429;28;81275;-65
2021/08/18 05:21:18;;;;;;;5.10;3.00;;;26.00;43.90;;;;;;6113169;28;80379;-65
2021/08/18 05:24:18;;;;;;;7.57;4.43;;;26.10;44.10;;;;;;6113271;28;80656;-66
2021/08/18 05:27:19;;;;;;;8.25;4.53;;;26.00;44.30;;;;;;6111886;28;82453;-62
2021/08/18 05:30:19;;;;;;;12.95;6.40;;;26.10;44.60;;;;;;6117731;28;82364;-64
2021/08/18 05:33:20;;;;;;;11.73;6.35;;;26.00;44.60;;;;;;6113281;28;80949;-63
2021/08/18 05:36:22;;;;;;;18.75;7.25;;;26.00;44.80;;;;;;6099708;28;82730;-63
2021/08/18 05:39:22;;;;;;;15.60;7.03;;;26.10;44.90;;;;;;6093875;28;83275;-63
2021/08/18 05:42:23;;;;;;;13.43;6.32;;;26.10;45.10;;;;;;6093259;28;81385;-63
2021/08/18 05:45:23;;;;;;;21.77;7.93;;;26.10;45.00;;;;;;6120665;28;80261;-62
2021/08/18 05:48:24;;;;;;;11.48;6.70;;;26.10;45.30;;;;;;6114654;28;80466;-63
2021/08/18 05:51:24;;;;;;;9.45;6.05;;;26.10;45.30;;;;;;6124834;28;80368;-63
2021/08/18 05:54:25;;;;;;;12.45;6.03;;;26.10;45.20;;;;;;6107100;28;81604;-64
2021/08/18 05:57:25;;;;;;;13.68;5.82;;;26.10;44.90;;;;;;6123819;28;80766;-66
2021/08/18 06:00:25;;;;;;;11.27;5.82;;;26.10;45.10;;;;;;6110109;28;80440;-64
2021/08/18 06:03:26;;;;;;;11.55;5.30;;;26.10;44.60;;;;;;6099770;28;80432;-64
2021/08/18 06:06:28;;;;;;;8.70;5.30;;;26.10;44.50;;;;;;6087569;28;80605;-63
2021/08/18 06:09:29;;;;;;;11.85;4.80;;;26.10;44.40;;;;;;6087383;28;80867;-64
2021/08/18 06:12:30;;;;;;;11.18;4.18;;;26.10;44.80;;;;;;6084911;28;81632;-63
2021/08/18 06:15:30;;;;;;;7.18;4.68;;;26.10;44.50;;;;;;6086962;28;81515;-63
2021/08/18 06:18:31;;;;;;;8.35;4.80;;;26.10;44.70;;;;;;6083074;28;80657;-63
2021/08/18 06:21:31;;;;;;;7.95;4.40;;;26.10;44.70;;;;;;6098464;28;80360;-62
2021/08/18 06:24:41;;;;;;;8.95;4.85;;;26.10;44.60;;;;;;6094532;28;80839;-63
2021/08/18 06:27:42;;;;;;;9.13;5.53;;;26.10;44.80;;;;;;6082687;28;80942;-62
2021/08/18 06:30:42;;;;;;;8.95;4.95;;;26.10;44.80;;;;;;6076244;28;80868;-62
2021/08/18 06:33:43;;;;;;;7.53;4.78;;;26.10;44.70;;;;;;6097921;28;80496;-63
2021/08/18 06:36:43;;;;;;;9.15;5.20;;;26.10;44.70;;;;;;6106979;28;80792;-63
2021/08/18 06:39:44;;;;;;;9.07;4.95;;;26.00;44.20;;;;;;6109201;28;80596;-62
2021/08/18 06:42:44;;;;;;;8.60;4.70;;;26.00;44.30;;;;;;6106271;28;80373;-62
2021/08/18 06:45:45;;;;;;;10.18;3.97;;;26.00;44.20;;;;;;6107602;28;82624;-62
2021/08/18 06:48:45;;;;;;;7.10;4.13;;;26.00;44.30;;;;;;6105695;28;80368;-62
2021/08/18 06:51:46;;;;;;;9.38;3.78;;;26.10;44.70;;;;;;6086132;28;83333;-62
2021/08/18 06:54:46;;;;;;;7.78;4.30;;;25.90;42.70;;;;;;6085146;28;82887;-63
2021/08/18 06:57:47;;;;;;;5.40;4.00;;;25.70;42.30;;;;;;6100199;28;81244;-61
2021/08/18 07:00:47;;;;;;;8.90;3.85;;;25.60;42.60;;;;;;6101086;28;81509;-62
2021/08/18 07:03:48;;;;;;;6.97;3.97;;;25.60;42.80;;;;;;6105466;28;81532;-61
2021/08/18 07:06:48;;;;;;;7.82;4.95;;;25.70;42.80;;;;;;6103278;28;81455;-61
2021/08/18 07:09:49;;;;;;;8.80;4.32;;;25.60;42.60;;;;;;6109505;28;82081;-62
2021/08/18 07:12:49;;;;;;;7.20;4.40;;;25.60;42.80;;;;;;6104820;28;81464;-62
2021/08/18 07:15:50;;;;;;;8.98;4.72;;;25.60;43.20;;;;;;6119400;28;80397;-62
2021/08/18 07:18:50;;;;;;;6.35;3.97;;;25.60;43.40;;;;;;6095314;28;82053;-62
2021/08/18 07:21:51;;;;;;;7.95;3.75;;;25.60;43.40;;;;;;6095092;28;82049;-62
2021/08/18 07:24:51;;;;;;;7.68;4.25;;;25.60;43.30;;;;;;6112039;28;81935;-63
2021/08/18 07:27:51;;;;;;;8.13;4.43;;;25.60;43.80;;;;;;6105396;28;80892;-63
2021/08/18 07:30:52;;;;;;;7.60;4.63;;;25.70;43.90;;;;;;6086918;28;80516;-61
2021/08/18 07:33:52;;;;;;;25.13;4.45;;;25.70;43.70;;;;;;6085385;28;81204;-61
2021/08/18 07:36:53;;;;;;;36.10;6.30;;;25.70;44.20;;;;;;6090429;28;80837;-62
2021/08/18 07:39:54;;;;;;;16.92;5.20;;;25.60;44.10;;;;;;6088077;28;83382;-63
2021/08/18 07:42:56;;;;;;;12.82;5.10;;;25.70;43.90;;;;;;6104014;28;81340;-61
2021/08/18 07:45:56;;;;;;;8.70;5.15;;;25.70;43.70;;;;;;6113049;28;80790;-63
2021/08/18 07:48:57;;;;;;;8.10;4.55;;;25.60;43.10;;;;;;6108464;28;83109;-62
2021/08/18 07:51:57;;;;;;;11.70;5.22;;;25.50;43.40;;;;;;6109476;28;81232;-64
2021/08/18 07:54:58;;;;;;;12.98;8.38;;;25.50;42.90;;;;;;6106000;28;80604;-63
2021/08/18 07:57:58;;;;;;;10.93;7.00;;;25.40;42.80;;;;;;6115129;28;80803;-62
2021/08/18 08:00:59;;;;;;;9.63;5.72;;;25.40;43.00;;;;;;6113288;28;80565;-62
2021/08/18 08:03:59;;;;;;;11.20;6.03;;;25.40;42.70;;;;;;6109632;28;80746;-62
2021/08/18 08:07:00;;;;;;;12.23;5.85;;;25.40;43.10;;;;;;6109014;28;81005;-62
2021/08/18 08:10:00;;;;;;;8.15;4.93;;;25.30;43.70;;;;;;6100794;28;81936;-62
2021/08/18 08:13:03;;;;;;;9.10;5.90;;;25.40;43.30;;;;;;6113655;28;80513;-61
2021/08/18 08:16:04;;;;;;;8.95;5.60;;;25.40;43.90;;;;;;6111140;28;81083;-61
2021/08/18 08:19:04;;;;;;;10.23;5.45;;;25.40;42.80;;;;;;6110586;28;81627;-61
2021/08/18 08:22:05;;;;;;;9.05;5.13;;;25.40;43.10;;;;;;6111566;28;80978;-62
2021/08/18 08:25:05;;;;;;;9.20;6.05;;;25.40;43.20;;;;;;6106403;28;81295;-62
2021/08/18 08:28:06;;;;;;;11.40;5.35;;;25.40;43.40;;;;;;6111191;28;80634;-62
2021/08/18 08:31:06;;;;;;;10.02;6.13;;;25.50;42.90;;;;;;6113818;28;80624;-63
2021/08/18 08:34:07;;;;;;;9.65;5.70;;;25.50;42.90;;;;;;6110630;28;80752;-62
2021/08/18 08:37:07;;;;;;;7.85;5.32;;;25.50;43.10;;;;;;6110519;28;87884;-61
2021/08/18 08:40:08;;;;;;;11.38;5.85;;;25.50;42.60;;;;;;6113777;28;81842;-62
2021/08/18 08:43:08;;;;;;;9.93;5.75;;;25.40;42.50;;;;;;6111612;28;80320;-63
2021/08/18 08:46:09;;;;;;;8.70;5.22;;;25.40;42.90;;;;;;6109449;28;81412;-62
2021/08/18 08:49:09;;;;;;;9.98;5.07;;;25.50;43.20;;;;;;6111793;28;81701;-62
2021/08/18 08:52:10;;;;;;;9.77;5.72;;;25.50;43.10;;;;;;6110788;28;80893;-62
2021/08/18 08:55:10;;;;;;;9.15;5.50;;;25.50;43.10;;;;;;6087961;28;81207;-62
2021/08/18 08:58:11;;;;;;;9.90;5.55;;;25.50;43.20;;;;;;6110031;28;80502;-61
2021/08/18 09:01:11;;;;;;;11.07;5.82;;;25.50;43.20;;;;;;6115414;28;83176;-62
2021/08/18 09:04:12;;;;;;;11.02;5.90;;;25.60;43.10;;;;;;6109909;28;80576;-63
2021/08/18 09:07:12;;;;;;;12.60;5.95;;;25.60;43.30;;;;;;6112887;28;81007;-63
2021/08/18 09:10:13;;;;;;;9.30;5.10;;;25.60;43.10;;;;;;6112789;28;81556;-62
2021/08/18 09:13:13;;;;;;;8.75;5.68;;;25.60;43.00;;;;;;6125878;28;81135;-62
2021/08/18 09:16:14;;;;;;;11.05;6.03;;;25.60;43.00;;;;;;6117876;28;81425;-62
2021/08/18 09:19:14;;;;;;;9.75;6.25;;;25.60;42.60;;;;;;6116920;28;80680;-62
2021/08/18 09:22:15;;;;;;;13.75;6.40;;;25.50;42.80;;;;;;6111326;28;81882;-61
2021/08/18 09:25:15;;;;;;;12.00;5.97;;;25.60;43.10;;;;;;6127959;28;81638;-61
2021/08/18 09:28:16;;;;;;;10.80;6.65;;;25.60;43.40;;;;;;6128445;28;81352;-62
2021/08/18 09:31:16;;;;;;;14.20;6.35;;;25.60;43.20;;;;;;6119581;28;80741;-61
2021/08/18 09:34:17;;;;;;;10.82;5.65;;;25.70;43.20;;;;;;6119062;28;80596;-62
2021/08/18 09:37:17;;;;;;;8.52;5.53;;;25.80;43.40;;;;;;6115106;28;81773;-62
2021/08/18 09:40:18;;;;;;;11.82;5.97;;;25.80;43.30;;;;;;6125228;28;81130;-62
2021/08/18 09:43:21;;;;;;;12.00;6.38;;;25.70;43.20;;;;;;6108625;28;80737;-62
2021/08/18 09:46:21;;;;;;;13.00;6.70;;;25.80;43.20;;;;;;6116941;28;81359;-62
2021/08/18 09:49:22;;;;;;;15.35;6.45;;;25.70;42.70;;;;;;6114315;28;80974;-63
2021/08/18 09:52:22;;;;;;;10.18;5.90;;;25.70;42.90;;;;;;6124560;28;81953;-62
2021/08/18 09:55:22;;;;;;;12.20;6.93;;;25.80;42.90;;;;;;6120660;28;80540;-63
2021/08/18 09:58:23;;;;;;;11.30;6.68;;;25.80;43.10;;;;;;6117235;28;80284;-62
2021/08/18 10:01:24;;;;;;;13.52;7.47;;;25.80;43.20;;;;;;6113643;28;80453;-62
2021/08/18 10:04:24;;;;;;;12.65;7.53;;;25.80;42.60;;;;;;6115092;28;81026;-62
2021/08/18 10:07:25;;;;;;;11.50;7.32;;;25.80;42.50;;;;;;6121534;28;82658;-62
2021/08/18 10:10:25;;;;;;;12.00;7.00;;;25.80;42.60;;;;;;6117894;28;80347;-64
2021/08/18 10:13:26;;;;;;;12.43;7.78;;;25.70;41.90;;;;;;6089772;28;82114;-61
2021/08/18 10:16:29;;;;;;;12.00;7.47;;;25.70;41.90;;;;;;6116667;28;82077;-62
2021/08/18 10:19:29;;;;;;;13.48;7.10;;;25.70;42.00;;;;;;6113125;28;80415;-62
2021/08/18 10:22:30;;;;;;;13.38;7.22;;;25.70;42.30;;;;;;6109429;28;80758;-62
2021/08/18 10:25:30;;;;;;;15.07;7.57;;;25.70;42.30;;;;;;6124304;28;81455;-62
2021/08/18 10:28:31;;;;;;;14.50;7.07;;;25.70;42.00;;;;;;6116515;28;80445;-62
2021/08/18 10:31:31;;;;;;;14.10;7.68;;;25.70;42.30;;;;;;6117638;28;80509;-62
2021/08/18 10:34:32;;;;;;;13.40;7.40;;;25.60;42.40;;;;;;6089193;28;80273;-62
2021/08/18 10:37:32;;;;;;;15.15;7.43;;;25.70;41.90;;;;;;6088904;28;80621;-63
2021/08/18 10:40:33;;;;;;;13.48;7.28;;;25.70;42.20;;;;;;6095558;28;81573;-62
2021/08/18 10:43:33;;;;;;;14.95;7.68;;;25.70;42.40;;;;;;6089294;28;80901;-62
2021/08/18 10:46:34;;;;;;;18.55;8.48;;;25.80;42.50;;;;;;6101350;28;81886;-62
2021/08/18 10:49:34;;;;;;;15.00;7.97;;;25.80;42.60;;;;;;6091514;28;80921;-61
2021/08/18 10:52:34;;;;;;;16.98;8.00;;;25.90;42.80;;;;;;6110499;28;80446;-62
2021/08/18 10:55:35;;;;;;;10.85;6.70;;;25.90;42.60;;;;;;6096659;28;80557;-62
2021/08/18 10:58:35;;;;;;;12.95;7.00;;;25.90;40.60;;;;;;6092368;28;80934;-61
2021/08/18 11:01:36;;;;;;;13.05;6.82;;;25.80;39.50;;;;;;6104626;28;81756;-62
2021/08/18 11:04:36;;;;;;;11.32;6.88;;;25.50;39.20;;;;;;6088461;28;80656;-62
2021/08/18 11:07:37;;;;;;;12.55;7.00;;;25.40;40.10;;;;;;6120907;28;81333;-61
2021/08/18 11:10:37;;;;;;;17.70;7.63;;;25.50;40.50;;;;;;6098610;28;81208;-62
2021/08/18 11:13:38;;;;;;;12.90;7.22;;;25.60;41.30;;;;;;6117352;28;82339;-62
2021/08/18 11:16:38;;;;;;;11.80;7.50;;;25.70;40.50;;;;;;6112813;28;82094;-62
2021/08/18 11:19:39;;;;;;;12.82;7.50;;;25.80;41.40;;;;;;6122686;28;80839;-62
2021/08/18 11:22:39;;;;;;;13.80;6.95;;;25.60;40.30;;;;;;6119361;28;80975;-62
2021/08/18 11:25:40;;;;;;;15.38;7.78;;;25.50;40.70;;;;;;6115479;28;80899;-62
2021/08/18 11:28:40;;;;;;;11.13;6.32;;;25.30;40.80;;;;;;6120400;28;81300;-61
2021/08/18 11:31:41;;;;;;;12.80;6.65;;;25.30;40.90;;;;;;6109272;28;80578;-62
2021/08/18 11:34:43;;;;;;;11.70;7.22;;;25.50;41.20;;;;;;6110057;28;80922;-62
2021/08/18 11:37:44;;;;;;;11.85;6.85;;;25.50;41.10;;;;;;6111947;28;81531;-62
2021/08/18 11:40:45;;;;;;;12.55;6.47;;;25.50;41.20;;;;;;6087204;28;80846;-62
2021/08/18 11:43:46;;;;;;;12.80;7.32;;;25.60;41.80;;;;;;6112390;28;80487;-62
2021/08/18 11:46:46;;;;;;;10.77;6.70;;;25.60;41.90;;;;;;6115740;28;80780;-63
2021/08/18 11:49:47;;;;;;;9.07;6.57;;;25.60;41.40;;;;;;6118157;28;80211;-62
2021/08/18 11:52:50;;;;;;;11.73;6.22;;;25.60;40.80;;;;;;6113414;28;80751;-62
2021/08/18 11:55:51;;;;;;;8.88;5.78;;;25.70;41.00;;;;;;6087104;28;81113;-62
2021/08/18 11:58:52;;;;;;;10.23;6.43;;;25.70;41.40;;;;;;6088509;28;81443;-62
2021/08/18 12:01:52;;;;;;;10.48;6.13;;;25.70;40.20;;;;;;6076039;28;81998;-62
2021/08/18 12:04:53;;;;;;;9.15;6.03;;;25.70;40.60;;;;;;6117127;28;80496;-62
2021/08/18 12:07:53;;;;;;;11.70;6.30;;;25.70;40.30;;;;;;6088748;28;80740;-62
2021/08/18 12:10:54;;;;;;;10.00;6.53;;;25.80;40.60;;;;;;6084880;28;80516;-62
2021/08/18 12:13:54;;;;;;;10.85;6.03;;;25.80;40.20;;;;;;6085796;28;82276;-62
2021/08/18 12:16:55;;;;;;;13.07;6.22;;;25.70;39.70;;;;;;6083593;28;80643;-62
2021/08/18 12:19:55;;;;;;;11.65;5.97;;;25.70;40.20;;;;;;6084893;28;81621;-62
2021/08/18 12:22:56;;;;;;;9.50;5.93;;;25.70;39.50;;;;;;6084377;28;81946;-62
2021/08/18 12:25:56;;;;;;;13.38;6.82;;;25.80;39.60;;;;;;6083224;28;84822;-62
2021/08/18 12:28:57;;;;;;;10.75;6.22;;;25.80;38.80;;;;;;6095373;28;80405;-62
2021/08/18 12:31:57;;;;;;;9.65;6.10;;;25.80;38.90;;;;;;6088344;28;80300;-63
2021/08/18 12:34:58;;;;;;;11.80;5.10;;;25.70;38.70;;;;;;6111624;28;80342;-62
2021/08/18 12:37:58;;;;;;;12.88;5.75;;;25.80;39.40;;;;;;6078378;28;81535;-62
2021/08/18 12:40:59;;;;;;;9.27;5.50;;;25.80;39.00;;;;;;6085301;28;80530;-62
2021/08/18 12:43:59;;;;;;;9.63;5.47;;;25.70;38.00;;;;;;6086697;28;80684;-63
2021/08/18 12:47:00;;;;;;;9.77;5.47;;;25.80;38.80;;;;;;6092114;28;80660;-62
2021/08/18 12:50:00;;;;;;;9.18;5.28;;;25.70;38.40;;;;;;6115112;28;81522;-62
2021/08/18 12:53:01;;;;;;;12.07;5.05;;;25.60;38.10;;;;;;6090854;28;80580;-62
2021/08/18 12:56:01;;;;;;;7.78;5.35;;;25.70;38.50;;;;;;6089466;28;80557;-63
2021/08/18 12:59:02;;;;;;;7.65;5.10;;;25.80;39.20;;;;;;6090962;28;81116;-62
2021/08/18 13:02:02;;;;;;;10.13;5.70;;;25.70;37.90;;;;;;6091088;28;80464;-63
2021/08/18 13:05:03;;;;;;;13.43;4.55;;;25.60;38.80;;;;;;6089453;28;81390;-61
2021/08/18 13:08:03;;;;;;;7.97;4.53;;;25.70;38.50;;;;;;6092105;28;80836;-62
2021/08/18 13:11:04;;;;;;;9.00;4.38;;;25.80;38.90;;;;;;6092231;28;80577;-62
2021/08/18 13:14:04;;;;;;;8.13;4.05;;;25.90;39.10;;;;;;6095344;28;80418;-62
2021/08/18 13:17:05;;;;;;;10.65;3.92;;;25.90;38.90;;;;;;6091782;28;81580;-61
2021/08/18 13:20:05;;;;;;;6.47;4.07;;;25.90;39.20;;;;;;6089389;28;81356;-62
2021/08/18 13:23:06;;;;;;;7.18;4.28;;;25.90;39.00;;;;;;6096417;28;81136;-61
2021/08/18 13:26:07;;;;;;;8.50;4.63;;;25.90;39.30;;;;;;6094603;28;80949;-62
2021/08/18 13:29:08;;;;;;;8.10;4.63;;;25.90;39.30;;;;;;6111548;28;81106;-62
2021/08/18 13:32:08;;;;;;;6.97;4.30;;;25.80;39.40;;;;;;6098302;28;81425;-61
2021/08/18 13:35:09;;;;;;;6.55;4.22;;;25.90;38.60;;;;;;6094944;28;81122;-62
2021/08/18 13:38:09;;;;;;;6.18;3.90;;;25.90;39.10;;;;;;6095644;28;80418;-61
2021/08/18 13:41:10;;;;;;;5.70;4.03;;;25.90;38.40;;;;;;6118820;28;81422;-62
2021/08/18 13:44:10;;;;;;;5.88;4.07;;;25.90;38.60;;;;;;6114351;28;80798;-61
2021/08/18 13:47:11;;;;;;;6.55;4.32;;;26.00;39.40;;;;;;6107297;28;81940;-65
2021/08/18 13:50:11;;;;;;;5.72;3.92;;;25.90;38.50;;;;;;6097325;28;80973;-62
2021/08/18 13:53:12;;;;;;;5.18;3.58;;;25.90;38.20;;;;;;6113683;28;81539;-65
2021/08/18 13:56:12;;;;;;;6.35;4.10;;;25.90;39.20;;;;;;6116366;28;80763;-63
2021/08/18 13:59:13;;;;;;;5.68;3.83;;;26.00;39.50;;;;;;6113938;28;80536;-64
2021/08/18 14:02:13;;;;;;;5.20;3.60;;;26.00;39.70;;;;;;6114212;28;80703;-65
2021/08/18 14:05:14;;;;;;;5.63;3.83;;;26.00;39.60;;;;;;6097964;28;83070;-66
2021/08/18 14:08:14;;;;;;;9.18;4.30;;;26.00;39.90;;;;;;6117727;28;81541;-63
2021/08/18 14:11:15;;;;;;;6.30;4.00;;;26.00;40.30;;;;;;6117252;28;80418;-65
2021/08/18 14:14:15;;;;;;;7.68;3.88;;;26.00;39.70;;;;;;6121652;28;80819;-63
2021/08/18 14:17:16;;;;;;;4.47;3.47;;;26.00;40.00;;;;;;6114823;28;80383;-63
2021/08/18 14:20:16;;;;;;;7.07;4.28;;;26.00;39.80;;;;;;6113494;28;87016;-63
2021/08/18 14:23:17;;;;;;;11.70;4.15;;;26.00;39.80;;;;;;6082776;28;80587;-64
2021/08/18 14:26:17;;;;;;;8.23;4.22;;;26.00;38.80;;;;;;6084055;28;80890;-66
2021/08/18 14:29:18;;;;;;;5.90;3.95;;;25.90;38.70;;;;;;6106833;28;80441;-64
2021/08/18 14:32:18;;;;;;;13.27;4.40;;;25.90;38.50;;;;;;6107981;28;82551;-64
2021/08/18 14:35:19;;;;;;;7.55;4.18;;;25.70;38.20;;;;;;6103465;28;80766;-63
2021/08/18 14:38:19;;;;;;;6.65;3.78;;;25.60;38.40;;;;;;6073197;28;83335;-64
2021/08/18 14:41:20;;;;;;;6.10;3.97;;;25.70;38.70;;;;;;6092432;28;81607;-65
2021/08/18 14:44:21;;;;;;;6.55;3.78;;;25.80;39.20;;;;;;6105408;28;80538;-64
2021/08/18 14:47:21;;;;;;;5.78;3.50;;;25.80;39.50;;;;;;6089634;28;82029;-64
2021/08/18 14:50:21;;;;;;;6.28;3.88;;;25.90;39.40;;;;;;6104723;28;81985;-63
2021/08/18 14:53:22;;;;;;;5.93;3.67;;;25.90;39.30;;;;;;6111804;28;81694;-64
2021/08/18 14:56:22;;;;;;;7.03;3.92;;;25.90;39.10;;;;;;6109364;28;81020;-62
2021/08/18 14:59:23;;;;;;;5.78;4.07;;;25.90;39.90;;;;;;6110152;28;80407;-63
2021/08/18 15:02:23;;;;;;;9.15;4.25;;;25.90;38.90;;;;;;6104185;28;81180;-63
2021/08/18 15:05:24;;;;;;;5.82;3.70;;;25.90;39.00;;;;;;6083656;28;81780;-63
2021/08/18 15:08:24;;;;;;;9.50;4.00;;;25.80;39.10;;;;;;6086081;28;81478;-62
2021/08/18 15:11:25;;;;;;;5.00;3.42;;;25.80;39.40;;;;;;6088022;28;80604;-63
2021/08/18 15:14:25;;;;;;;5.57;3.75;;;25.90;39.80;;;;;;6105710;28;83203;-63
2021/08/18 15:17:26;;;;;;;4.43;3.22;;;25.90;40.10;;;;;;6108548;28;80510;-62
2021/08/18 15:20:29;;;;;;;8.18;3.63;;;26.00;40.10;;;;;;6085082;28;83146;-63
2021/08/18 15:23:29;;;;;;;5.93;3.47;;;26.00;40.10;;;;;;6105712;28;81220;-64
2021/08/18 15:26:30;;;;;;;5.95;3.50;;;26.00;40.20;;;;;;6108966;28;80460;-62
2021/08/18 15:29:30;;;;;;;12.88;4.00;;;26.00;40.40;;;;;;6090871;28;81465;-63
2021/08/18 15:32:31;;;;;;;8.02;3.63;;;26.10;40.40;;;;;;6110431;28;80718;-61
2021/08/18 15:35:31;;;;;;;5.95;3.50;;;26.00;40.30;;;;;;6110092;28;86680;-67